This is the latest recevied weather packets stored in our database for station/object K7DC. If no packets are shown the sender has not sent any weather packets the latest 10 day(s).
| Time | Temp. | Humidity | Pressure | Rain* | Wind** | Luminosity | Snow |
|---|---|---|---|---|---|---|---|
| 1777600011 | 18.33° C | 57% | 1008.3 hPa | 0 mm | - | 1 W/m² | - |
| 1777599706 | 18.89° C | 57% | 1008.3 hPa | 0 mm | - | 1 W/m² | - |
| 1777599403 | 20° C | 56% | 1008 hPa | 0 mm | - | 2 W/m² | - |
| 1777599100 | 20.56° C | 52% | 1008.7 hPa | 0 mm | - | 2 W/m² | - |
| 1777598799 | 21.11° C | 51% | 1008.6 hPa | 0 mm | - | 2 W/m² | - |
| 1777598498 | 21.11° C | 50% | 1008.8 hPa | 0 mm | - | 3 W/m² | - |
| 1777598192 | 21.11° C | 53% | 1008.7 hPa | 0 mm | - | 4 W/m² | - |
| 1777597892 | 22.22° C | 49% | 1008.6 hPa | 0 mm | - | 4 W/m² | - |
| 1777597592 | 23.33° C | 43% | 1008.2 hPa | 0 mm | - | 5 W/m² | - |
| 1777597288 | 25° C | 36% | 1007.7 hPa | 0 mm | - | 7 W/m² | - |
| 1777596983 | 25.56° C | 28% | 1007.5 hPa | 0 mm | - | 10 W/m² | - |
| 1777596680 | 25.56° C | 30% | 1007.3 hPa | 0 mm | - | 14 W/m² | - |
| 1777596377 | 25.56° C | 31% | 1007 hPa | 0 mm | - | 18 W/m² | - |
| 1777596074 | 26.11° C | 31% | 1006.7 hPa | 0 mm | - | 23 W/m² | - |
| 1777595769 | 26.67° C | 29% | 1006.6 hPa | 0 mm | - | 30 W/m² | - |
| 1777595465 | 26.67° C | 28% | 1006.8 hPa | 0 mm | - | 35 W/m² | - |
| 1777595162 | 26.67° C | 28% | 1006.5 hPa | 0 mm | - | 38 W/m² | - |
| 1777594857 | 26.67° C | 27% | 1006.4 hPa | 0 mm | - | 34 W/m² | - |
| 1777594554 | 26.67° C | 27% | 1006.3 hPa | 0 mm | - | 45 W/m² | - |
| 1777594250 | 26.67° C | 27% | 1006.4 hPa | 0 mm | - | 54 W/m² | - |
| 1777593946 | 27.22° C | 27% | 1006.2 hPa | 0 mm | - | 71 W/m² | - |
| 1777593643 | 27.22° C | 27% | 1006.3 hPa | 0 mm | - | 85 W/m² | - |
| 1777593339 | 27.22° C | 27% | 1006.3 hPa | 0 mm | - | 99 W/m² | - |
| 1777593033 | 27.78° C | 26% | 1006.2 hPa | 0 mm | - | 104 W/m² | - |
| 1777592732 | 27.78° C | 25% | 1006.3 hPa | 0 mm | - | 100 W/m² | - |
* Rain latest hour (hover to see other rain measurements)
** Current wind speed in m/s (hover to see current wind gust speed)